createdAt,value
2019-01-24T00:00:01.167Z,2.3
2019-01-24T00:05:01.364Z,2.3
2019-01-24T00:10:01.196Z,2.6
2019-01-24T00:15:01.625Z,2.6
2019-01-24T00:20:01.191Z,2.8
2019-01-24T00:25:01.190Z,2.8
2019-01-24T00:30:01.199Z,2.9
2019-01-24T00:40:01.306Z,3.1
2019-01-24T00:45:01.240Z,3.0
2019-01-24T00:50:01.178Z,3.3
2019-01-24T00:55:01.306Z,3.5
2019-01-24T01:00:01.197Z,3.6
2019-01-24T01:05:01.240Z,3.5
2019-01-24T01:10:02.429Z,3.8
2019-01-24T01:15:01.259Z,3.8
2019-01-24T01:20:06.367Z,4.5
2019-01-24T01:25:01.179Z,4.3
2019-01-24T01:30:01.195Z,5.4
2019-01-24T01:35:01.184Z,5.2
2019-01-24T01:40:01.176Z,5.6
2019-01-24T01:45:01.254Z,5.6
2019-01-24T01:50:01.227Z,6.2
2019-01-24T01:55:01.322Z,6.2
2019-01-24T02:00:01.218Z,6.6
2019-01-24T02:05:01.263Z,6.6
2019-01-24T02:10:01.199Z,7.4
2019-01-24T02:15:02.485Z,7.4
2019-01-24T02:20:01.216Z,7.3
2019-01-24T02:25:01.337Z,7.0
2019-01-24T02:30:06.235Z,7.2
2019-01-24T02:35:01.282Z,6.8
2019-01-24T02:40:01.214Z,7.5
2019-01-24T02:45:01.278Z,7.6
2019-01-24T02:50:01.219Z,7.8
2019-01-24T02:55:01.479Z,8.0
2019-01-24T03:00:01.248Z,7.8
2019-01-24T03:05:01.295Z,8.0
2019-01-24T03:10:01.259Z,7.9
2019-01-24T03:15:06.319Z,7.7
2019-01-24T03:20:02.451Z,7.7
2019-01-24T03:30:01.306Z,7.6
2019-01-24T03:35:04.904Z,8.3
2019-01-24T03:40:01.242Z,8.6
2019-01-24T03:45:01.314Z,8.5
2019-01-24T03:50:01.216Z,7.7
2019-01-24T03:55:01.320Z,7.8
2019-01-24T04:00:01.261Z,8.8
2019-01-24T04:05:01.321Z,8.5
2019-01-24T04:10:01.261Z,8.3
2019-01-24T04:15:01.320Z,8.1
2019-01-24T04:20:01.262Z,7.9
2019-01-24T04:25:01.388Z,7.6
2019-01-24T04:30:01.279Z,8.1
2019-01-24T04:35:01.458Z,8.2
2019-01-24T04:40:01.293Z,8.6
2019-01-24T04:45:01.404Z,8.7
2019-01-24T04:50:01.368Z,7.8
2019-01-24T04:55:01.267Z,8.3
2019-01-24T05:00:01.377Z,8.7
2019-01-24T05:05:01.344Z,8.0
2019-01-24T05:15:01.341Z,7.9
2019-01-24T05:25:01.425Z,8.6
2019-01-24T05:30:01.283Z,9.3
2019-01-24T05:35:01.437Z,9.2
2019-01-24T05:40:01.292Z,9.2
2019-01-24T05:45:01.425Z,9.3
2019-01-24T05:50:01.292Z,9.1
2019-01-24T05:55:01.389Z,9.1
2019-01-24T06:00:01.356Z,8.4
2019-01-24T06:05:01.361Z,8.7
2019-01-24T06:10:01.303Z,7.8
2019-01-24T06:15:01.488Z,7.7
2019-01-24T06:20:01.301Z,7.9
2019-01-24T06:25:01.371Z,8.2
2019-01-24T06:30:01.310Z,8.5
2019-01-24T06:35:01.346Z,8.3
2019-01-24T06:40:01.341Z,7.7
2019-01-24T06:45:01.311Z,7.5
2019-01-24T06:50:01.307Z,7.1
2019-01-24T06:55:01.411Z,7.0
2019-01-24T07:00:01.352Z,6.8
2019-01-24T07:05:01.415Z,7.0
2019-01-24T07:10:01.318Z,7.0
2019-01-24T07:15:02.596Z,7.1
2019-01-24T07:20:01.327Z,6.5
2019-01-24T07:30:01.455Z,6.8
2019-01-24T07:35:01.341Z,6.9
2019-01-24T07:40:01.331Z,7.0
2019-01-24T07:45:01.659Z,7.2
2019-01-24T07:50:01.464Z,7.3
2019-01-24T08:00:01.490Z,6.8
2019-01-24T08:05:01.406Z,6.4
2019-01-24T08:10:01.345Z,6.7
2019-01-24T08:15:01.444Z,6.6
2019-01-24T08:20:01.377Z,6.7
2019-01-24T08:25:01.427Z,6.5
2019-01-24T08:30:01.366Z,6.4
2019-01-24T08:35:01.420Z,6.5
2019-01-24T08:40:01.576Z,6.8
2019-01-24T08:45:01.483Z,6.8
2019-01-24T08:50:01.375Z,7.0
2019-01-24T08:55:01.489Z,7.6
2019-01-24T09:00:01.366Z,7.7
2019-01-24T09:05:01.383Z,7.6
2019-01-24T09:10:01.458Z,8.2
2019-01-24T09:15:01.756Z,8.3
2019-01-24T09:20:01.399Z,9.0
2019-01-24T09:25:01.459Z,8.5
2019-01-24T09:30:01.394Z,9.1
2019-01-24T09:35:01.535Z,8.8
2019-01-24T09:40:01.396Z,9.1
2019-01-24T09:45:01.530Z,8.5
2019-01-24T09:50:01.407Z,9.1
2019-01-24T09:55:03.384Z,9.0
2019-01-24T10:00:01.418Z,9.4
2019-01-24T10:05:01.474Z,9.6
2019-01-24T10:10:01.415Z,10.1
2019-01-24T10:15:01.539Z,10.0
2019-01-24T10:20:01.407Z,10.2
2019-01-24T10:25:01.473Z,9.6
2019-01-24T10:30:01.423Z,9.7
2019-01-24T10:35:01.475Z,10.0
2019-01-24T10:40:02.425Z,10.3
2019-01-24T10:45:01.538Z,10.3
2019-01-24T10:50:01.419Z,11.0
2019-01-24T10:55:01.488Z,10.9
2019-01-24T11:00:01.557Z,11.1
2019-01-24T11:05:01.414Z,10.7
2019-01-24T11:10:01.411Z,10.0
2019-01-24T11:15:01.548Z,9.8
2019-01-24T11:20:01.418Z,10.0
2019-01-24T11:25:01.485Z,9.9
2019-01-24T11:30:01.492Z,10.3
2019-01-24T11:35:01.493Z,11.5
2019-01-24T11:40:01.416Z,12.2
2019-01-24T11:45:01.543Z,11.6
2019-01-24T11:50:01.398Z,11.7
2019-01-24T11:55:02.441Z,12.0
2019-01-24T12:00:01.434Z,11.3
2019-01-24T12:05:01.506Z,11.1
2019-01-24T12:10:01.423Z,12.2
2019-01-24T12:15:01.413Z,11.4
2019-01-24T12:20:01.412Z,11.7
2019-01-24T12:25:01.535Z,12.0
2019-01-24T12:30:02.442Z,12.0
2019-01-24T12:35:01.487Z,12.1
2019-01-24T12:40:01.517Z,12.3
2019-01-24T12:45:01.595Z,11.3
2019-01-24T12:50:01.447Z,11.3
2019-01-24T12:55:01.569Z,11.3
2019-01-24T13:00:01.450Z,10.9
2019-01-24T13:05:01.515Z,11.3
2019-01-24T13:10:01.455Z,12.0
2019-01-24T13:15:01.442Z,12.0
2019-01-24T13:20:01.466Z,11.9
2019-01-24T13:25:01.583Z,12.1
2019-01-24T13:30:01.447Z,12.0
2019-01-24T13:35:01.516Z,11.9
2019-01-24T13:40:01.464Z,11.3
2019-01-24T13:45:01.513Z,11.6
2019-01-24T13:50:01.462Z,10.7
2019-01-24T13:55:01.583Z,11.1
2019-01-24T14:00:01.494Z,10.6
2019-01-24T14:05:01.569Z,10.6
2019-01-24T14:10:01.373Z,10.9
2019-01-24T14:15:01.947Z,11.9
2019-01-24T14:20:01.382Z,12.5
2019-01-24T14:25:01.598Z,12.1
2019-01-24T14:30:01.425Z,12.0
2019-01-24T14:35:02.569Z,11.8
2019-01-24T14:40:01.428Z,11.4
2019-01-24T14:45:01.447Z,11.1
2019-01-24T14:51:01.416Z,11.6
2019-01-24T14:56:01.534Z,11.9
2019-01-24T15:01:01.412Z,12.3
2019-01-24T15:06:01.558Z,12.3
2019-01-24T15:11:01.419Z,11.9
2019-01-24T15:16:01.564Z,10.8
2019-01-24T15:21:01.456Z,10.8
2019-01-24T15:26:01.523Z,10.6
2019-01-24T15:31:01.474Z,10.3
2019-01-24T15:36:01.563Z,10.2
2019-01-24T15:41:01.445Z,11.2
2019-01-24T15:46:06.492Z,11.3
2019-01-24T15:51:01.440Z,11.4
2019-01-24T15:56:01.720Z,11.5
2019-01-24T16:01:02.441Z,11.6
2019-01-24T16:06:01.486Z,11.4
2019-01-24T16:11:01.422Z,11.2
2019-01-24T16:16:01.562Z,10.8
2019-01-24T16:22:01.481Z,11.0
2019-01-24T16:32:01.428Z,10.9
2019-01-24T16:37:01.474Z,10.6
2019-01-24T16:47:01.480Z,10.6
2019-01-24T16:52:01.425Z,10.5
2019-01-24T16:57:01.556Z,10.8
2019-01-24T17:02:01.410Z,10.9
2019-01-24T17:07:06.541Z,11.5
2019-01-24T17:12:01.430Z,11.5
2019-01-24T17:17:01.545Z,11.9
2019-01-24T17:22:01.420Z,12.0
2019-01-24T17:27:01.582Z,11.5
2019-01-24T17:32:01.454Z,11.3
2019-01-24T17:37:01.521Z,11.3
2019-01-24T17:42:01.755Z,11.1
2019-01-24T17:47:01.507Z,11.6
2019-01-24T17:52:01.467Z,11.5
2019-01-24T17:57:01.577Z,10.9
2019-01-24T18:02:01.463Z,11.2
2019-01-24T18:07:01.837Z,10.9
2019-01-24T18:12:01.428Z,11.4
2019-01-24T18:17:06.557Z,11.7
2019-01-24T18:23:01.409Z,11.7
2019-01-24T18:28:01.476Z,11.0
2019-01-24T18:33:01.404Z,11.1
2019-01-24T18:38:01.474Z,11.1
2019-01-24T18:43:01.430Z,10.9
2019-01-24T18:48:01.488Z,11.0
2019-01-24T18:53:01.612Z,11.0
2019-01-24T18:58:01.486Z,10.6
2019-01-24T19:08:01.485Z,9.8
2019-01-24T19:13:01.413Z,9.7
2019-01-24T19:18:01.561Z,10.3
2019-01-24T19:23:01.420Z,10.8
2019-01-24T19:28:01.493Z,11.1
2019-01-24T19:33:01.486Z,11.2
2019-01-24T19:38:01.571Z,11.0
2019-01-24T19:43:01.417Z,10.6
2019-01-24T19:48:01.556Z,10.5
2019-01-24T19:53:01.413Z,10.2
2019-01-24T19:58:01.479Z,9.8
2019-01-24T20:03:01.413Z,10.3
2019-01-24T20:08:01.475Z,10.4
2019-01-24T20:13:03.095Z,10.7
2019-01-24T20:18:01.541Z,11.1
2019-01-24T20:23:01.419Z,11.1
2019-01-24T20:28:01.531Z,10.9
2019-01-24T20:33:01.424Z,10.7
2019-01-24T20:38:02.436Z,11.1
2019-01-24T20:43:01.434Z,11.1
2019-01-24T20:48:01.477Z,11.2
2019-01-24T20:53:01.412Z,11.1
2019-01-24T20:58:01.537Z,10.8
2019-01-24T21:03:01.392Z,10.8
2019-01-24T21:08:01.477Z,11.1
2019-01-24T21:13:07.461Z,11.1
2019-01-24T21:18:01.578Z,10.5
2019-01-24T21:23:01.580Z,10.9
2019-01-24T21:28:01.542Z,10.5
2019-01-24T21:33:01.382Z,10.3
2019-01-24T21:38:01.549Z,11.2
2019-01-24T21:43:01.427Z,11.3
2019-01-24T21:48:01.489Z,10.8
2019-01-24T21:53:02.357Z,10.8
2019-01-24T21:58:01.556Z,11.0
2019-01-24T22:04:01.419Z,11.2
2019-01-24T22:09:01.484Z,10.9
2019-01-24T22:14:01.413Z,11.5
2019-01-24T22:19:01.412Z,11.3
2019-01-24T22:24:01.577Z,11.2
2019-01-24T22:29:01.424Z,10.9
2019-01-24T22:34:02.243Z,10.9
2019-01-24T22:39:01.391Z,10.3
2019-01-24T22:44:01.419Z,10.5
2019-01-24T22:49:06.427Z,10.7
2019-01-24T22:54:01.430Z,11.0
2019-01-24T22:59:01.449Z,11.3
2019-01-24T23:04:01.539Z,10.9
2019-01-24T23:09:01.419Z,10.5
2019-01-24T23:14:01.422Z,10.8
2019-01-24T23:19:01.421Z,10.8
2019-01-24T23:24:01.420Z,10.8
2019-01-24T23:29:01.420Z,11.5
2019-01-24T23:34:01.442Z,12.2
2019-01-24T23:39:01.423Z,12.1
2019-01-24T23:44:01.510Z,11.6
2019-01-24T23:49:01.497Z,11.4
2019-01-24T23:54:01.593Z,11.3
